sensor_id;sensor_type;location;lat;lon;timestamp;P1;durP1;ratioP1;P2;durP2;ratioP2
24713;SDS011;12820;51.580;5.010;2023-08-24T00:03:53;6.30;;;3.35;;
24713;SDS011;12820;51.580;5.010;2023-08-24T00:08:55;7.70;;;3.10;;
24713;SDS011;12820;51.580;5.010;2023-08-24T00:13:58;9.85;;;3.38;;
24713;SDS011;12820;51.580;5.010;2023-08-24T00:19:01;9.98;;;3.42;;
24713;SDS011;12820;51.580;5.010;2023-08-24T00:24:03;8.85;;;3.50;;
24713;SDS011;12820;51.580;5.010;2023-08-24T00:29:06;8.27;;;3.33;;
24713;SDS011;12820;51.580;5.010;2023-08-24T00:34:08;12.45;;;3.63;;
24713;SDS011;12820;51.580;5.010;2023-08-24T00:39:11;8.15;;;3.63;;
24713;SDS011;12820;51.580;5.010;2023-08-24T00:44:13;6.35;;;3.25;;
24713;SDS011;12820;51.580;5.010;2023-08-24T00:49:16;12.27;;;3.97;;
24713;SDS011;12820;51.580;5.010;2023-08-24T00:54:18;7.82;;;3.78;;
24713;SDS011;12820;51.580;5.010;2023-08-24T00:59:21;8.35;;;3.30;;
24713;SDS011;12820;51.580;5.010;2023-08-24T01:04:23;8.48;;;3.67;;
24713;SDS011;12820;51.580;5.010;2023-08-24T01:09:26;10.32;;;3.70;;
24713;SDS011;12820;51.580;5.010;2023-08-24T01:19:49;7.78;;;3.70;;
24713;SDS011;12820;51.580;5.010;2023-08-24T01:30:17;11.38;;;4.20;;
24713;SDS011;12820;51.580;5.010;2023-08-24T01:35:19;9.50;;;4.47;;
24713;SDS011;12820;51.580;5.010;2023-08-24T01:45:52;9.38;;;4.55;;
24713;SDS011;12820;51.580;5.010;2023-08-24T01:50:57;8.25;;;4.90;;
24713;SDS011;12820;51.580;5.010;2023-08-24T01:56:01;9.80;;;4.78;;
24713;SDS011;12820;51.580;5.010;2023-08-24T02:01:09;10.90;;;4.95;;
24713;SDS011;12820;51.580;5.010;2023-08-24T02:06:12;10.60;;;4.72;;
24713;SDS011;12820;51.580;5.010;2023-08-24T02:11:15;10.60;;;4.90;;
24713;SDS011;12820;51.580;5.010;2023-08-24T02:16:17;9.23;;;4.88;;
24713;SDS011;12820;51.580;5.010;2023-08-24T02:21:19;12.85;;;5.13;;
24713;SDS011;12820;51.580;5.010;2023-08-24T02:26:22;11.60;;;5.40;;
24713;SDS011;12820;51.580;5.010;2023-08-24T02:31:24;10.48;;;5.22;;
24713;SDS011;12820;51.580;5.010;2023-08-24T02:36:26;13.43;;;6.00;;
24713;SDS011;12820;51.580;5.010;2023-08-24T02:41:29;9.55;;;6.10;;
24713;SDS011;12820;51.580;5.010;2023-08-24T02:46:31;11.57;;;6.40;;
24713;SDS011;12820;51.580;5.010;2023-08-24T02:51:36;11.85;;;6.93;;
24713;SDS011;12820;51.580;5.010;2023-08-24T02:56:39;13.55;;;7.65;;
24713;SDS011;12820;51.580;5.010;2023-08-24T03:01:41;14.52;;;8.00;;
24713;SDS011;12820;51.580;5.010;2023-08-24T03:07:08;12.95;;;7.78;;
24713;SDS011;12820;51.580;5.010;2023-08-24T03:12:12;16.85;;;10.27;;
24713;SDS011;12820;51.580;5.010;2023-08-24T03:17:14;13.98;;;7.60;;
24713;SDS011;12820;51.580;5.010;2023-08-24T03:22:17;14.13;;;7.72;;
24713;SDS011;12820;51.580;5.010;2023-08-24T03:27:19;16.60;;;8.77;;
24713;SDS011;12820;51.580;5.010;2023-08-24T03:32:21;14.65;;;8.45;;
24713;SDS011;12820;51.580;5.010;2023-08-24T03:37:24;15.68;;;8.75;;
24713;SDS011;12820;51.580;5.010;2023-08-24T03:42:26;16.55;;;9.23;;
24713;SDS011;12820;51.580;5.010;2023-08-24T03:47:28;15.48;;;9.20;;
24713;SDS011;12820;51.580;5.010;2023-08-24T03:52:30;16.08;;;8.77;;
24713;SDS011;12820;51.580;5.010;2023-08-24T03:57:33;18.88;;;9.90;;
24713;SDS011;12820;51.580;5.010;2023-08-24T04:02:43;19.17;;;9.10;;
24713;SDS011;12820;51.580;5.010;2023-08-24T04:07:53;16.20;;;8.98;;
24713;SDS011;12820;51.580;5.010;2023-08-24T04:12:56;17.17;;;8.52;;
24713;SDS011;12820;51.580;5.010;2023-08-24T04:17:59;18.23;;;9.63;;
24713;SDS011;12820;51.580;5.010;2023-08-24T04:23:01;14.98;;;10.00;;
24713;SDS011;12820;51.580;5.010;2023-08-24T04:28:07;16.10;;;10.10;;
24713;SDS011;12820;51.580;5.010;2023-08-24T04:33:11;18.08;;;10.40;;
24713;SDS011;12820;51.580;5.010;2023-08-24T04:38:13;15.32;;;9.48;;
24713;SDS011;12820;51.580;5.010;2023-08-24T04:43:15;17.38;;;11.23;;
24713;SDS011;12820;51.580;5.010;2023-08-24T04:48:18;17.05;;;10.35;;
24713;SDS011;12820;51.580;5.010;2023-08-24T04:53:24;20.73;;;11.25;;
24713;SDS011;12820;51.580;5.010;2023-08-24T04:58:27;16.98;;;10.98;;
24713;SDS011;12820;51.580;5.010;2023-08-24T05:03:29;17.58;;;11.07;;
24713;SDS011;12820;51.580;5.010;2023-08-24T05:08:32;19.58;;;11.27;;
24713;SDS011;12820;51.580;5.010;2023-08-24T05:13:35;20.58;;;11.63;;
24713;SDS011;12820;51.580;5.010;2023-08-24T05:18:37;21.95;;;12.68;;
24713;SDS011;12820;51.580;5.010;2023-08-24T05:23:39;19.05;;;12.40;;
24713;SDS011;12820;51.580;5.010;2023-08-24T05:28:42;19.10;;;11.88;;
24713;SDS011;12820;51.580;5.010;2023-08-24T05:33:44;19.30;;;12.45;;
24713;SDS011;12820;51.580;5.010;2023-08-24T05:38:46;25.52;;;13.60;;
24713;SDS011;12820;51.580;5.010;2023-08-24T05:43:52;31.13;;;14.25;;
24713;SDS011;12820;51.580;5.010;2023-08-24T05:48:55;31.30;;;15.55;;
24713;SDS011;12820;51.580;5.010;2023-08-24T05:53:58;28.27;;;15.05;;
24713;SDS011;12820;51.580;5.010;2023-08-24T05:59:00;26.42;;;14.70;;
24713;SDS011;12820;51.580;5.010;2023-08-24T06:04:07;27.42;;;16.17;;
24713;SDS011;12820;51.580;5.010;2023-08-24T06:09:10;23.30;;;14.75;;
24713;SDS011;12820;51.580;5.010;2023-08-24T06:14:12;25.55;;;14.80;;
24713;SDS011;12820;51.580;5.010;2023-08-24T06:19:15;25.55;;;14.80;;
24713;SDS011;12820;51.580;5.010;2023-08-24T06:24:17;23.67;;;14.38;;
24713;SDS011;12820;51.580;5.010;2023-08-24T06:29:19;25.90;;;15.18;;
24713;SDS011;12820;51.580;5.010;2023-08-24T06:34:22;22.95;;;15.38;;
24713;SDS011;12820;51.580;5.010;2023-08-24T06:39:24;25.90;;;15.80;;
24713;SDS011;12820;51.580;5.010;2023-08-24T06:44:26;25.85;;;14.95;;
24713;SDS011;12820;51.580;5.010;2023-08-24T06:49:29;22.92;;;13.82;;
24713;SDS011;12820;51.580;5.010;2023-08-24T06:54:31;25.90;;;14.35;;
24713;SDS011;12820;51.580;5.010;2023-08-24T06:59:33;26.65;;;14.48;;
24713;SDS011;12820;51.580;5.010;2023-08-24T07:04:36;21.98;;;13.88;;
24713;SDS011;12820;51.580;5.010;2023-08-24T07:09:40;22.30;;;14.05;;
24713;SDS011;12820;51.580;5.010;2023-08-24T07:14:43;19.70;;;13.48;;
24713;SDS011;12820;51.580;5.010;2023-08-24T07:19:45;20.75;;;12.20;;
24713;SDS011;12820;51.580;5.010;2023-08-24T07:24:47;19.15;;;12.02;;
24713;SDS011;12820;51.580;5.010;2023-08-24T07:29:54;18.75;;;12.27;;
24713;SDS011;12820;51.580;5.010;2023-08-24T07:34:56;20.10;;;12.70;;
24713;SDS011;12820;51.580;5.010;2023-08-24T07:40:00;24.02;;;11.52;;
24713;SDS011;12820;51.580;5.010;2023-08-24T07:45:02;20.10;;;11.38;;
24713;SDS011;12820;51.580;5.010;2023-08-24T07:50:05;19.05;;;11.27;;
24713;SDS011;12820;51.580;5.010;2023-08-24T07:55:09;19.60;;;11.65;;
24713;SDS011;12820;51.580;5.010;2023-08-24T08:00:11;16.55;;;11.00;;
24713;SDS011;12820;51.580;5.010;2023-08-24T08:05:16;16.42;;;10.43;;
24713;SDS011;12820;51.580;5.010;2023-08-24T08:10:21;16.98;;;9.55;;
24713;SDS011;12820;51.580;5.010;2023-08-24T08:15:24;16.77;;;9.90;;
24713;SDS011;12820;51.580;5.010;2023-08-24T08:20:26;16.70;;;9.82;;
24713;SDS011;12820;51.580;5.010;2023-08-24T08:25:31;17.92;;;10.25;;
24713;SDS011;12820;51.580;5.010;2023-08-24T08:30:36;20.13;;;10.13;;
24713;SDS011;12820;51.580;5.010;2023-08-24T08:35:38;18.40;;;9.40;;
24713;SDS011;12820;51.580;5.010;2023-08-24T08:40:41;17.63;;;10.07;;
24713;SDS011;12820;51.580;5.010;2023-08-24T08:45:45;14.40;;;9.32;;
24713;SDS011;12820;51.580;5.010;2023-08-24T08:50:51;17.98;;;9.70;;
24713;SDS011;12820;51.580;5.010;2023-08-24T08:55:55;15.00;;;9.57;;
24713;SDS011;12820;51.580;5.010;2023-08-24T09:00:59;16.27;;;8.85;;
24713;SDS011;12820;51.580;5.010;2023-08-24T09:06:08;16.50;;;8.70;;
24713;SDS011;12820;51.580;5.010;2023-08-24T09:11:11;14.50;;;7.97;;
24713;SDS011;12820;51.580;5.010;2023-08-24T09:16:13;15.07;;;8.55;;
24713;SDS011;12820;51.580;5.010;2023-08-24T09:21:19;13.50;;;8.60;;
24713;SDS011;12820;51.580;5.010;2023-08-24T09:26:30;13.07;;;8.45;;
24713;SDS011;12820;51.580;5.010;2023-08-24T09:31:36;14.20;;;8.45;;
24713;SDS011;12820;51.580;5.010;2023-08-24T09:36:42;16.95;;;8.32;;
24713;SDS011;12820;51.580;5.010;2023-08-24T09:41:48;13.55;;;7.05;;
24713;SDS011;12820;51.580;5.010;2023-08-24T09:46:53;13.93;;;6.97;;
24713;SDS011;12820;51.580;5.010;2023-08-24T09:51:56;12.13;;;7.25;;
24713;SDS011;12820;51.580;5.010;2023-08-24T09:56:59;12.30;;;7.55;;
24713;SDS011;12820;51.580;5.010;2023-08-24T10:02:02;13.00;;;7.10;;
24713;SDS011;12820;51.580;5.010;2023-08-24T10:07:10;12.38;;;6.57;;
24713;SDS011;12820;51.580;5.010;2023-08-24T10:12:17;14.35;;;7.18;;
24713;SDS011;12820;51.580;5.010;2023-08-24T10:17:22;12.63;;;7.18;;
24713;SDS011;12820;51.580;5.010;2023-08-24T10:22:25;10.20;;;7.00;;
24713;SDS011;12820;51.580;5.010;2023-08-24T10:27:29;12.93;;;7.07;;
24713;SDS011;12820;51.580;5.010;2023-08-24T10:32:32;15.90;;;7.25;;
24713;SDS011;12820;51.580;5.010;2023-08-24T10:37:34;15.18;;;8.60;;
24713;SDS011;12820;51.580;5.010;2023-08-24T10:42:43;13.02;;;8.52;;
24713;SDS011;12820;51.580;5.010;2023-08-24T10:47:47;16.98;;;10.27;;
24713;SDS011;12820;51.580;5.010;2023-08-24T10:52:56;20.02;;;11.75;;
24713;SDS011;12820;51.580;5.010;2023-08-24T10:57:59;17.85;;;11.32;;
24713;SDS011;12820;51.580;5.010;2023-08-24T11:03:01;18.60;;;11.88;;
24713;SDS011;12820;51.580;5.010;2023-08-24T11:08:05;19.95;;;12.00;;
24713;SDS011;12820;51.580;5.010;2023-08-24T11:13:08;16.35;;;10.63;;
24713;SDS011;12820;51.580;5.010;2023-08-24T11:18:13;15.73;;;10.32;;
24713;SDS011;12820;51.580;5.010;2023-08-24T11:23:16;16.38;;;10.57;;
24713;SDS011;12820;51.580;5.010;2023-08-24T11:28:19;14.82;;;10.15;;
24713;SDS011;12820;51.580;5.010;2023-08-24T11:33:28;14.15;;;8.48;;
24713;SDS011;12820;51.580;5.010;2023-08-24T11:38:35;15.60;;;10.10;;
24713;SDS011;12820;51.580;5.010;2023-08-24T11:43:45;15.40;;;9.32;;
24713;SDS011;12820;51.580;5.010;2023-08-24T11:48:49;13.93;;;8.60;;
24713;SDS011;12820;51.580;5.010;2023-08-24T11:53:52;12.80;;;8.15;;
24713;SDS011;12820;51.580;5.010;2023-08-24T11:58:55;12.35;;;8.13;;
24713;SDS011;12820;51.580;5.010;2023-08-24T12:03:57;16.40;;;7.68;;
24713;SDS011;12820;51.580;5.010;2023-08-24T12:09:00;10.77;;;7.65;;
24713;SDS011;12820;51.580;5.010;2023-08-24T12:14:03;15.15;;;7.03;;
24713;SDS011;12820;51.580;5.010;2023-08-24T12:19:07;12.65;;;6.82;;
24713;SDS011;12820;51.580;5.010;2023-08-24T12:24:13;12.45;;;6.13;;
24713;SDS011;12820;51.580;5.010;2023-08-24T12:29:15;10.52;;;5.65;;
24713;SDS011;12820;51.580;5.010;2023-08-24T12:34:20;9.40;;;5.30;;
24713;SDS011;12820;51.580;5.010;2023-08-24T12:39:22;11.70;;;5.70;;
24713;SDS011;12820;51.580;5.010;2023-08-24T12:44:24;9.27;;;5.53;;
24713;SDS011;12820;51.580;5.010;2023-08-24T12:49:26;10.80;;;5.18;;
24713;SDS011;12820;51.580;5.010;2023-08-24T12:54:28;16.40;;;6.32;;
24713;SDS011;12820;51.580;5.010;2023-08-24T12:59:30;9.63;;;4.93;;
24713;SDS011;12820;51.580;5.010;2023-08-24T13:04:33;8.20;;;5.07;;
24713;SDS011;12820;51.580;5.010;2023-08-24T13:09:35;10.15;;;4.75;;
24713;SDS011;12820;51.580;5.010;2023-08-24T13:14:38;13.57;;;4.32;;
24713;SDS011;12820;51.580;5.010;2023-08-24T13:19:40;7.85;;;4.30;;
24713;SDS011;12820;51.580;5.010;2023-08-24T13:24:43;8.75;;;4.05;;
24713;SDS011;12820;51.580;5.010;2023-08-24T13:29:46;8.27;;;3.75;;
24713;SDS011;12820;51.580;5.010;2023-08-24T13:34:48;8.65;;;3.30;;
24713;SDS011;12820;51.580;5.010;2023-08-24T13:39:50;6.68;;;3.08;;
24713;SDS011;12820;51.580;5.010;2023-08-24T13:44:53;7.15;;;2.90;;
24713;SDS011;12820;51.580;5.010;2023-08-24T13:49:55;8.60;;;3.53;;
24713;SDS011;12820;51.580;5.010;2023-08-24T13:54:58;10.32;;;3.38;;
24713;SDS011;12820;51.580;5.010;2023-08-24T14:00:13;8.32;;;3.75;;
24713;SDS011;12820;51.580;5.010;2023-08-24T14:05:16;12.65;;;4.40;;
24713;SDS011;12820;51.580;5.010;2023-08-24T14:10:18;14.88;;;5.45;;
24713;SDS011;12820;51.580;5.010;2023-08-24T14:15:20;11.10;;;3.97;;
24713;SDS011;12820;51.580;5.010;2023-08-24T14:20:22;8.27;;;2.97;;
24713;SDS011;12820;51.580;5.010;2023-08-24T14:25:25;6.95;;;2.80;;
24713;SDS011;12820;51.580;5.010;2023-08-24T14:30:27;8.15;;;2.60;;
24713;SDS011;12820;51.580;5.010;2023-08-24T14:35:29;8.05;;;2.90;;
24713;SDS011;12820;51.580;5.010;2023-08-24T14:40:34;8.57;;;3.25;;
24713;SDS011;12820;51.580;5.010;2023-08-24T14:45:36;8.40;;;4.30;;
24713;SDS011;12820;51.580;5.010;2023-08-24T14:50:39;7.03;;;3.58;;
24713;SDS011;12820;51.580;5.010;2023-08-24T14:55:41;5.15;;;1.90;;
24713;SDS011;12820;51.580;5.010;2023-08-24T15:00:44;5.15;;;2.10;;
24713;SDS011;12820;51.580;5.010;2023-08-24T15:06:03;6.28;;;2.58;;
24713;SDS011;12820;51.580;5.010;2023-08-24T15:11:07;4.90;;;2.17;;
24713;SDS011;12820;51.580;5.010;2023-08-24T15:16:09;5.68;;;1.90;;
24713;SDS011;12820;51.580;5.010;2023-08-24T15:21:12;7.10;;;2.33;;
24713;SDS011;12820;51.580;5.010;2023-08-24T15:26:16;6.70;;;2.20;;
24713;SDS011;12820;51.580;5.010;2023-08-24T15:31:18;4.85;;;2.33;;
24713;SDS011;12820;51.580;5.010;2023-08-24T15:36:21;5.88;;;2.15;;
24713;SDS011;12820;51.580;5.010;2023-08-24T15:41:23;6.95;;;2.20;;
24713;SDS011;12820;51.580;5.010;2023-08-24T15:46:25;5.95;;;2.00;;
24713;SDS011;12820;51.580;5.010;2023-08-24T15:51:27;4.80;;;1.98;;
24713;SDS011;12820;51.580;5.010;2023-08-24T15:56:29;7.00;;;1.73;;
24713;SDS011;12820;51.580;5.010;2023-08-24T16:01:32;6.57;;;1.92;;
24713;SDS011;12820;51.580;5.010;2023-08-24T16:06:34;4.45;;;1.80;;
24713;SDS011;12820;51.580;5.010;2023-08-24T16:11:37;6.10;;;1.90;;
24713;SDS011;12820;51.580;5.010;2023-08-24T16:16:39;9.88;;;4.88;;
24713;SDS011;12820;51.580;5.010;2023-08-24T16:21:42;5.82;;;1.80;;
24713;SDS011;12820;51.580;5.010;2023-08-24T16:26:45;5.30;;;1.65;;
24713;SDS011;12820;51.580;5.010;2023-08-24T16:31:47;6.22;;;1.90;;
24713;SDS011;12820;51.580;5.010;2023-08-24T16:36:49;5.47;;;1.80;;
24713;SDS011;12820;51.580;5.010;2023-08-24T16:41:52;6.18;;;2.45;;
24713;SDS011;12820;51.580;5.010;2023-08-24T16:46:54;6.03;;;1.80;;
24713;SDS011;12820;51.580;5.010;2023-08-24T16:51:57;4.07;;;2.00;;
24713;SDS011;12820;51.580;5.010;2023-08-24T16:56:59;5.90;;;1.77;;
24713;SDS011;12820;51.580;5.010;2023-08-24T17:02:02;6.18;;;1.80;;
24713;SDS011;12820;51.580;5.010;2023-08-24T17:07:04;5.22;;;1.90;;
24713;SDS011;12820;51.580;5.010;2023-08-24T17:12:06;5.65;;;1.77;;
24713;SDS011;12820;51.580;5.010;2023-08-24T17:17:08;7.68;;;1.60;;
24713;SDS011;12820;51.580;5.010;2023-08-24T17:22:11;7.55;;;2.20;;
24713;SDS011;12820;51.580;5.010;2023-08-24T17:27:14;6.00;;;1.60;;
24713;SDS011;12820;51.580;5.010;2023-08-24T17:32:16;6.40;;;2.20;;
24713;SDS011;12820;51.580;5.010;2023-08-24T17:37:18;5.18;;;2.35;;
24713;SDS011;12820;51.580;5.010;2023-08-24T17:42:21;8.73;;;3.30;;
24713;SDS011;12820;51.580;5.010;2023-08-24T17:47:23;6.25;;;2.38;;
24713;SDS011;12820;51.580;5.010;2023-08-24T17:52:25;8.00;;;3.30;;
24713;SDS011;12820;51.580;5.010;2023-08-24T17:57:27;7.43;;;3.47;;
24713;SDS011;12820;51.580;5.010;2023-08-24T18:02:29;8.48;;;2.70;;
24713;SDS011;12820;51.580;5.010;2023-08-24T18:07:32;8.45;;;2.47;;
24713;SDS011;12820;51.580;5.010;2023-08-24T18:12:34;7.25;;;2.53;;
24713;SDS011;12820;51.580;5.010;2023-08-24T18:17:36;6.25;;;2.40;;
24713;SDS011;12820;51.580;5.010;2023-08-24T18:22:42;6.55;;;2.40;;
24713;SDS011;12820;51.580;5.010;2023-08-24T18:27:44;6.47;;;2.40;;
24713;SDS011;12820;51.580;5.010;2023-08-24T18:32:47;6.85;;;2.30;;
24713;SDS011;12820;51.580;5.010;2023-08-24T18:37:49;6.90;;;2.30;;
24713;SDS011;12820;51.580;5.010;2023-08-24T18:42:52;5.15;;;2.17;;
24713;SDS011;12820;51.580;5.010;2023-08-24T18:47:54;7.65;;;2.60;;
24713;SDS011;12820;51.580;5.010;2023-08-24T18:52:57;5.03;;;2.20;;
24713;SDS011;12820;51.580;5.010;2023-08-24T18:58:00;6.72;;;2.90;;
24713;SDS011;12820;51.580;5.010;2023-08-24T19:03:02;10.73;;;3.20;;
24713;SDS011;12820;51.580;5.010;2023-08-24T19:08:05;9.02;;;3.50;;
24713;SDS011;12820;51.580;5.010;2023-08-24T19:13:07;11.38;;;5.03;;
24713;SDS011;12820;51.580;5.010;2023-08-24T19:18:10;8.88;;;3.65;;
24713;SDS011;12820;51.580;5.010;2023-08-24T19:23:12;8.68;;;2.92;;
24713;SDS011;12820;51.580;5.010;2023-08-24T19:28:15;9.23;;;3.35;;
24713;SDS011;12820;51.580;5.010;2023-08-24T19:33:18;5.25;;;2.70;;
24713;SDS011;12820;51.580;5.010;2023-08-24T19:38:22;5.65;;;2.92;;
24713;SDS011;12820;51.580;5.010;2023-08-24T19:43:27;8.23;;;3.17;;
24713;SDS011;12820;51.580;5.010;2023-08-24T19:48:32;6.97;;;3.35;;
24713;SDS011;12820;51.580;5.010;2023-08-24T19:53:34;6.20;;;3.50;;
24713;SDS011;12820;51.580;5.010;2023-08-24T19:58:37;6.80;;;3.28;;
24713;SDS011;12820;51.580;5.010;2023-08-24T20:03:40;9.32;;;4.30;;
24713;SDS011;12820;51.580;5.010;2023-08-24T20:08:42;7.85;;;4.10;;
24713;SDS011;12820;51.580;5.010;2023-08-24T20:13:45;8.48;;;3.75;;
24713;SDS011;12820;51.580;5.010;2023-08-24T20:18:48;6.97;;;3.90;;
24713;SDS011;12820;51.580;5.010;2023-08-24T20:23:51;8.60;;;4.78;;
24713;SDS011;12820;51.580;5.010;2023-08-24T20:29:02;14.80;;;5.07;;
24713;SDS011;12820;51.580;5.010;2023-08-24T20:34:04;8.55;;;4.90;;
24713;SDS011;12820;51.580;5.010;2023-08-24T20:39:06;15.50;;;6.07;;
24713;SDS011;12820;51.580;5.010;2023-08-24T20:44:11;13.82;;;6.82;;
24713;SDS011;12820;51.580;5.010;2023-08-24T20:49:14;13.30;;;7.40;;
24713;SDS011;12820;51.580;5.010;2023-08-24T20:54:16;13.80;;;7.70;;
24713;SDS011;12820;51.580;5.010;2023-08-24T20:59:18;14.38;;;8.27;;
24713;SDS011;12820;51.580;5.010;2023-08-24T21:04:21;12.90;;;7.70;;
24713;SDS011;12820;51.580;5.010;2023-08-24T21:09:23;15.75;;;8.73;;
24713;SDS011;12820;51.580;5.010;2023-08-24T21:14:26;14.98;;;9.43;;
24713;SDS011;12820;51.580;5.010;2023-08-24T21:19:28;15.98;;;10.52;;
24713;SDS011;12820;51.580;5.010;2023-08-24T21:24:31;13.38;;;8.98;;
24713;SDS011;12820;51.580;5.010;2023-08-24T21:29:33;15.98;;;10.38;;
24713;SDS011;12820;51.580;5.010;2023-08-24T21:34:35;17.30;;;10.13;;
24713;SDS011;12820;51.580;5.010;2023-08-24T21:39:38;17.58;;;11.35;;
24713;SDS011;12820;51.580;5.010;2023-08-24T21:44:40;17.77;;;11.95;;
24713;SDS011;12820;51.580;5.010;2023-08-24T21:49:43;21.80;;;12.00;;
24713;SDS011;12820;51.580;5.010;2023-08-24T21:54:45;17.10;;;10.77;;
24713;SDS011;12820;51.580;5.010;2023-08-24T21:59:48;16.65;;;11.55;;
24713;SDS011;12820;51.580;5.010;2023-08-24T22:04:50;19.02;;;11.50;;
24713;SDS011;12820;51.580;5.010;2023-08-24T22:09:52;16.85;;;11.65;;
24713;SDS011;12820;51.580;5.010;2023-08-24T22:14:56;18.15;;;10.95;;
24713;SDS011;12820;51.580;5.010;2023-08-24T22:19:59;14.57;;;9.88;;
24713;SDS011;12820;51.580;5.010;2023-08-24T22:25:02;15.38;;;10.50;;
24713;SDS011;12820;51.580;5.010;2023-08-24T22:30:04;19.48;;;10.27;;
24713;SDS011;12820;51.580;5.010;2023-08-24T22:35:07;15.45;;;11.60;;
24713;SDS011;12820;51.580;5.010;2023-08-24T22:40:10;18.63;;;12.57;;
24713;SDS011;12820;51.580;5.010;2023-08-24T22:45:12;16.35;;;12.65;;
24713;SDS011;12820;51.580;5.010;2023-08-24T22:50:15;21.48;;;13.57;;
24713;SDS011;12820;51.580;5.010;2023-08-24T22:55:17;15.35;;;8.70;;
24713;SDS011;12820;51.580;5.010;2023-08-24T23:00:19;16.92;;;9.55;;
24713;SDS011;12820;51.580;5.010;2023-08-24T23:05:21;23.30;;;14.68;;
24713;SDS011;12820;51.580;5.010;2023-08-24T23:10:24;22.08;;;11.80;;
24713;SDS011;12820;51.580;5.010;2023-08-24T23:15:26;22.90;;;14.98;;
24713;SDS011;12820;51.580;5.010;2023-08-24T23:20:28;20.35;;;14.23;;
24713;SDS011;12820;51.580;5.010;2023-08-24T23:25:30;23.85;;;15.65;;
24713;SDS011;12820;51.580;5.010;2023-08-24T23:30:32;22.10;;;15.93;;
24713;SDS011;12820;51.580;5.010;2023-08-24T23:35:36;25.77;;;16.33;;
24713;SDS011;12820;51.580;5.010;2023-08-24T23:40:38;25.85;;;16.65;;
24713;SDS011;12820;51.580;5.010;2023-08-24T23:45:41;23.80;;;17.15;;
24713;SDS011;12820;51.580;5.010;2023-08-24T23:50:43;25.75;;;17.17;;
24713;SDS011;12820;51.580;5.010;2023-08-24T23:55:45;22.98;;;17.35;;
